Acton, CA

11:39 AM PDT on October 01, 2014 (GMT -0700)
Bridle Path | Change Station
CLOSE
Current Station
Personal Weather Station
Location: Acton, CA
Elevation: 2920 ft
Nearby Weather Stations

Elev 2920 ft 34.48 °N, 118.17 °W | Updated 24 seconds ago

Clear
Clear
77.4 °F
Feels Like 77 °F
N
10.0
Wind Variable Wind from East
Gusts 12.0 mph

Today
High -- | Low -- °F
--% Chance of Precip.
Yesterday
High -- | Low -- °F
Precip. -- in
6:47 AM 6:36 PM
Waxing Crescent, 50% visible
Pressure 29.90 in
Visibility 10.0 miles
Clouds Clear
Heat Index 77 °F
Dew Point 38 °F
Humidity 24%
Rainfall 0.00 in
Snow Depth 0 in , 0 in , 1 in
UV 6 out of 12
Pollen 5.50 out of 12
Ozone Good
PM2.5 Moderate
Flu Activity Not available.
METAR KPMD 301753Z VRB03KT 10SM CLR 24/04 A2995 RMK AO2 SLP123 T02440044 10244 20111 58001

More Conditions Fewer Conditions

Pressure 29.90 in
Visibility 10.0 miles
Clouds Clear
Heat Index 77 °F
Dew Point 38 °F
Humidity 24%
Rainfall 0.00 in
Snow Depth 0 in , 0 in , 1 in
UV 6 out of 12
Pollen 5.50 out of 12
Ozone Good
PM2.5 Moderate
Flu Activity Not available.
METAR KPMD 301753Z VRB03KT 10SM CLR 24/04 A2995 RMK AO2 SLP123 T02440044 10244 20111 58001

More Conditions Fewer Conditions

10-Day Weather Forecast

Almanac

Astronomy

Oct. 01, 2014 Rise Set
Actual Time 6:47 AM PDT 6:36 PM PDT
Civil Twilight 6:22 AM PDT 7:01 PM PDT
Nautical Twilight 5:53 AM PDT 7:30 PM PDT
Astronomical Twilight 5:23 AM PDT 8:00 PM PDT
Moon 1:41 PM PDT No Moon Set
Length of Visible Light 12h 39m
Length of Day
11h 49m
Tomorrow will be 2m 8s shorter.
Waxing Crescent, 50% of the Moon is Illuminated
Today
Waxing Crescent
Oct 1
First Quarter
Oct 8
Full
Oct 15
Last Quarter
Oct 23
New

Today's Extremes

State Highs State Lows

Community

WunderPhotos

Upload Photos

1,758,010 photos uploaded!

WunderBlogs® & News

By Dr. Jeff Masters
Director of Meteorology, Weather Underground
By Kari Strenfel
Meteorologist, Weather Underground
By Christopher C. Burt
Weather Historian, Weather Underground
October 1, 2014
October 1, 2014
October 1, 2014

Nearby

Air Quality

  Air Quality AQ Index Pollutant
Yesterday Moderate
OZONE
Yesterday Good
PM10
Current Moderate
PM2.5
Current Good
OZONE
Thursday Moderate
PM10
Thursday Good
OZONE
Thursday Good
CO
Thursday Good
NO2

Snow Depth

Station Depth Elevation
Spratt Creek 0 in 6200 ft
Leavitt Meadows 0 in 7200 ft
Summit Meadow 1 in 9122 ft
Rubicon #2 0 in 7500 ft
Leavitt Lake 0 in 9400 ft

Earthquake Activity

City Distance Mag. Time & Date
Avalon, California 97 miles 2.6 1:28 PM PDT
2014-09-30
Minimum magnitude displayed is 2.5.

Coastal Water Temperatures

Place Temperature
No Stations Reporting

Nearby Weather Stations